Time;durP1;ratioP1;P1;durP2;ratioP2;P2;SDS_P1;SDS_P2;PMS_P1;PMS_P2;Temp;Humidity;BMP_temperature;BMP_pressure;BME280_temperature;BME280_humidity;BME280_pressure;Samples;Min_cycle;Max_cycle;Signal;HPM_P1;HPM_P2
2023/08/23 00:00:10;;;;;;;1.13;1.00;;;;;;;;;;5053856;28;20025;-78
2023/08/23 00:02:36;;;;;;;2.72;1.17;;;;;;;;;;5037284;28;20472;-78
2023/08/23 00:05:01;;;;;;;1.73;1.15;;;;;;;;;;5053599;28;20086;-78
2023/08/23 00:07:26;;;;;;;1.17;1.08;;;;;;;;;;5053516;28;20029;-78
2023/08/23 00:09:52;;;;;;;1.50;1.10;;;;;;;;;;5053456;28;20074;-78
2023/08/23 00:12:17;;;;;;;1.35;1.25;;;;;;;;;;5036713;28;20028;-78
2023/08/23 00:14:43;;;;;;;2.42;1.10;;;;;;;;;;5053379;28;20148;-78
2023/08/23 00:17:08;;;;;;;1.35;0.98;;;;;;;;;;5054168;28;20029;-78
2023/08/23 00:19:34;;;;;;;1.15;0.90;;;;;;;;;;5054465;28;20031;-78
2023/08/23 00:21:59;;;;;;;1.63;1.02;;;;;;;;;;5036291;28;20052;-78
2023/08/23 00:24:25;;;;;;;1.35;1.00;;;;;;;;;;5053497;28;20056;-78
2023/08/23 00:26:50;;;;;;;1.65;1.02;;;;;;;;;;5053069;28;20029;-77
2023/08/23 00:29:15;;;;;;;3.72;1.20;;;;;;;;;;5053466;28;20052;-77
2023/08/23 00:31:41;;;;;;;1.13;1.02;;;;;;;;;;5054164;28;20083;-78
2023/08/23 00:34:06;;;;;;;1.00;1.00;;;;;;;;;;5036199;28;20033;-78
2023/08/23 00:36:31;;;;;;;3.15;1.20;;;;;;;;;;5055134;28;20451;-78
2023/08/23 00:38:57;;;;;;;1.13;1.02;;;;;;;;;;5052774;28;20036;-79
2023/08/23 00:41:23;;;;;;;4.07;1.23;;;;;;;;;;5054005;28;20472;-79
2023/08/23 00:43:48;;;;;;;1.48;1.17;;;;;;;;;;5052683;28;20052;-79
2023/08/23 00:46:15;;;;;;;2.53;1.05;;;;;;;;;;5054003;28;20036;-78
2023/08/23 00:48:41;;;;;;;1.23;1.13;;;;;;;;;;5036243;28;20106;-78
2023/08/23 00:51:08;;;;;;;2.65;1.10;;;;;;;;;;5052969;28;20100;-78
2023/08/23 00:53:33;;;;;;;1.35;1.13;;;;;;;;;;5054096;28;20025;-78
2023/08/23 00:56:00;;;;;;;1.55;1.10;;;;;;;;;;5052701;28;20150;-78
2023/08/23 00:58:25;;;;;;;1.75;1.05;;;;;;;;;;5054056;28;20108;-78
2023/08/23 01:00:51;;;;;;;1.00;1.00;;;;;;;;;;5035940;28;20178;-78
2023/08/23 01:03:16;;;;;;;2.03;1.20;;;;;;;;;;5052830;28;20033;-78
2023/08/23 01:05:59;;;;;;;0.90;0.90;;;;;;;;;;5052870;28;20139;-78
2023/08/23 01:08:48;;;;;;;1.17;1.08;;;;;;;;;;5052294;28;20083;-78
2023/08/23 01:11:21;;;;;;;2.38;1.00;;;;;;;;;;5035783;28;20163;-78
2023/08/23 01:14:23;;;;;;;0.93;0.80;;;;;;;;;;5054070;28;20077;-78
2023/08/23 01:16:49;;;;;;;1.00;0.90;;;;;;;;;;5053747;28;20059;-78
2023/08/23 01:19:33;;;;;;;1.13;0.93;;;;;;;;;;5052199;28;20476;-78
2023/08/23 01:21:59;;;;;;;1.48;0.98;;;;;;;;;;5053152;28;20025;-78
2023/08/23 01:24:24;;;;;;;1.95;1.02;;;;;;;;;;5052195;28;20025;-78
2023/08/23 01:26:50;;;;;;;1.67;1.20;;;;;;;;;;5052315;28;20033;-78
2023/08/23 01:29:16;;;;;;;1.55;1.20;;;;;;;;;;5052636;28;20440;-78
2023/08/23 01:31:43;;;;;;;1.23;1.10;;;;;;;;;;5053518;28;20025;-78
2023/08/23 01:34:11;;;;;;;0.80;0.80;;;;;;;;;;5035380;28;20478;-78
2023/08/23 01:36:38;;;;;;;1.58;1.02;;;;;;;;;;5035526;28;20041;-78
2023/08/23 01:39:04;;;;;;;0.98;0.98;;;;;;;;;;5052106;28;20024;-78
2023/08/23 01:41:29;;;;;;;1.00;1.00;;;;;;;;;;5051808;28;20037;-78
2023/08/23 01:43:55;;;;;;;3.53;1.20;;;;;;;;;;5051968;28;20440;-78
2023/08/23 01:46:20;;;;;;;1.20;1.10;;;;;;;;;;5035289;28;20076;-78
2023/08/23 01:48:46;;;;;;;0.80;0.80;;;;;;;;;;5052935;28;20053;-78
2023/08/23 01:51:11;;;;;;;2.15;1.27;;;;;;;;;;5035546;28;20479;-78
2023/08/23 01:53:36;;;;;;;1.00;1.00;;;;;;;;;;5052406;28;20476;-78
2023/08/23 01:56:02;;;;;;;1.20;1.10;;;;;;;;;;5057434;28;20116;-78
2023/08/23 01:58:27;;;;;;;1.20;1.10;;;;;;;;;;5039426;28;20087;-78
2023/08/23 02:00:53;;;;;;;2.17;1.00;;;;;;;;;;5057325;28;20147;-78
2023/08/23 02:03:18;;;;;;;1.50;1.00;;;;;;;;;;5039199;28;20483;-78
2023/08/23 02:05:44;;;;;;;1.20;1.10;;;;;;;;;;5055929;28;20064;-78
2023/08/23 02:08:10;;;;;;;2.67;1.20;;;;;;;;;;5055720;28;20029;-79
2023/08/23 02:10:35;;;;;;;1.15;1.05;;;;;;;;;;5057276;28;20051;-78
2023/08/23 02:13:04;;;;;;;1.17;1.02;;;;;;;;;;5039018;28;20033;-78
2023/08/23 02:15:30;;;;;;;1.13;1.02;;;;;;;;;;5055661;28;20108;-78
2023/08/23 02:17:55;;;;;;;1.23;1.10;;;;;;;;;;5056195;28;20452;-78
2023/08/23 02:20:21;;;;;;;1.10;1.00;;;;;;;;;;5056921;28;20029;-78
2023/08/23 02:22:46;;;;;;;1.23;1.10;;;;;;;;;;5056645;28;20407;-78
2023/08/23 02:25:11;;;;;;;1.75;0.98;;;;;;;;;;5056779;28;20476;-78
2023/08/23 02:27:37;;;;;;;1.65;0.93;;;;;;;;;;5055783;28;20037;-78
2023/08/23 02:30:02;;;;;;;1.40;1.17;;;;;;;;;;5056861;28;20486;-78
2023/08/23 02:32:28;;;;;;;1.35;1.00;;;;;;;;;;5056447;28;20036;-78
2023/08/23 02:34:53;;;;;;;1.63;1.42;;;;;;;;;;5055331;28;20029;-78
2023/08/23 02:37:18;;;;;;;1.52;1.00;;;;;;;;;;5056775;28;20033;-78
2023/08/23 02:39:44;;;;;;;2.17;1.10;;;;;;;;;;5038571;28;20068;-78
2023/08/23 02:42:09;;;;;;;1.08;1.00;;;;;;;;;;5056523;28;20377;-78
2023/08/23 02:44:34;;;;;;;1.10;1.00;;;;;;;;;;5038394;28;20067;-78
2023/08/23 02:47:00;;;;;;;1.10;1.00;;;;;;;;;;5055376;28;20033;-79
2023/08/23 02:49:25;;;;;;;3.63;1.30;;;;;;;;;;5056126;28;20575;-78
2023/08/23 02:51:51;;;;;;;1.30;1.10;;;;;;;;;;5055113;28;20025;-78
2023/08/23 02:54:16;;;;;;;1.20;1.10;;;;;;;;;;5055461;28;20376;-77
2023/08/23 02:56:41;;;;;;;1.35;1.10;;;;;;;;;;5056230;28;20048;-78
2023/08/23 02:59:07;;;;;;;1.77;1.10;;;;;;;;;;5055160;28;20580;-77
2023/08/23 03:01:32;;;;;;;1.05;0.98;;;;;;;;;;5056316;28;20072;-77
2023/08/23 03:03:57;;;;;;;1.25;1.05;;;;;;;;;;5055042;28;20033;-78
2023/08/23 03:06:23;;;;;;;1.20;1.10;;;;;;;;;;5055730;28;20439;-77
2023/08/23 03:08:48;;;;;;;1.42;1.17;;;;;;;;;;5056114;28;20036;-77
2023/08/23 03:11:13;;;;;;;1.98;1.30;;;;;;;;;;5056346;28;20167;-78
2023/08/23 03:13:39;;;;;;;2.78;1.20;;;;;;;;;;5054889;28;20502;-78
2023/08/23 03:16:04;;;;;;;2.10;1.20;;;;;;;;;;5055102;28;20120;-78
2023/08/23 03:18:29;;;;;;;1.35;1.25;;;;;;;;;;5055878;28;20082;-78
2023/08/23 03:20:55;;;;;;;2.38;1.10;;;;;;;;;;5054160;28;20484;-78
2023/08/23 03:23:20;;;;;;;1.65;1.15;;;;;;;;;;5055781;28;20029;-78
2023/08/23 03:25:47;;;;;;;2.15;1.00;;;;;;;;;;5054320;28;20039;-78
2023/08/23 03:28:13;;;;;;;1.20;1.10;;;;;;;;;;5054360;28;20029;-78
2023/08/23 03:30:39;;;;;;;1.23;1.10;;;;;;;;;;5054029;28;20052;-78
2023/08/23 03:33:05;;;;;;;1.52;1.30;;;;;;;;;;5055596;28;20491;-78
2023/08/23 03:35:30;;;;;;;1.77;1.17;;;;;;;;;;5037727;28;20033;-78
2023/08/23 03:37:56;;;;;;;1.63;1.17;;;;;;;;;;5055369;28;20479;-78
2023/08/23 03:40:21;;;;;;;1.60;1.23;;;;;;;;;;5054399;28;20086;-78
2023/08/23 03:42:47;;;;;;;1.88;1.10;;;;;;;;;;5055007;28;20098;-78
2023/08/23 03:45:12;;;;;;;1.77;1.30;;;;;;;;;;5053933;28;20033;-77
2023/08/23 03:47:38;;;;;;;2.72;1.00;;;;;;;;;;5055471;28;20155;-78
2023/08/23 03:50:04;;;;;;;1.20;1.08;;;;;;;;;;5036954;28;20056;-78
2023/08/23 03:52:29;;;;;;;1.33;1.10;;;;;;;;;;5053726;28;20044;-78
2023/08/23 03:54:55;;;;;;;1.25;1.00;;;;;;;;;;5053645;28;20030;-78
2023/08/23 03:57:20;;;;;;;1.15;1.10;;;;;;;;;;5055038;28;20476;-78
2023/08/23 03:59:45;;;;;;;2.25;1.30;;;;;;;;;;5020391;28;20403;-78
2023/08/23 04:02:11;;;;;;;1.55;1.20;;;;;;;;;;5053370;28;20025;-77
2023/08/23 04:04:36;;;;;;;1.60;1.13;;;;;;;;;;5054695;28;20121;-78
2023/08/23 04:07:01;;;;;;;1.85;1.30;;;;;;;;;;5053816;28;20044;-77
2023/08/23 04:09:27;;;;;;;1.33;1.10;;;;;;;;;;5054939;28;20575;-77
2023/08/23 04:11:52;;;;;;;1.70;1.17;;;;;;;;;;5053670;28;20033;-78
2023/08/23 04:14:17;;;;;;;1.20;1.10;;;;;;;;;;5055117;28;20119;-78
2023/08/23 04:16:43;;;;;;;2.80;1.60;;;;;;;;;;5053313;28;20037;-78
2023/08/23 04:19:08;;;;;;;3.08;1.70;;;;;;;;;;5054104;28;20506;-77
2023/08/23 04:21:33;;;;;;;4.93;1.80;;;;;;;;;;5055132;28;20035;-77
2023/08/23 04:24:00;;;;;;;3.00;1.85;;;;;;;;;;5056842;28;20033;-77
2023/08/23 04:26:25;;;;;;;3.88;1.83;;;;;;;;;;5055992;28;20074;-78
2023/08/23 04:28:51;;;;;;;2.20;1.70;;;;;;;;;;5054216;28;20119;-77
2023/08/23 04:31:16;;;;;;;6.28;2.08;;;;;;;;;;5054134;28;20066;-77
2023/08/23 04:33:42;;;;;;;4.47;1.73;;;;;;;;;;5054954;28;20021;-76
2023/08/23 04:36:07;;;;;;;6.57;1.92;;;;;;;;;;5037526;28;20041;-76
2023/08/23 04:38:33;;;;;;;6.15;1.75;;;;;;;;;;5038408;28;20063;-76
2023/08/23 04:41:03;;;;;;;4.47;1.77;;;;;;;;;;5054793;28;20035;-76
2023/08/23 04:43:28;;;;;;;3.58;1.50;;;;;;;;;;5055653;28;20032;-76
2023/08/23 04:45:54;;;;;;;4.22;1.65;;;;;;;;;;5055322;28;20372;-76
2023/08/23 04:48:20;;;;;;;8.45;1.50;;;;;;;;;;5037713;28;20095;-76
2023/08/23 04:50:52;;;;;;;5.80;1.60;;;;;;;;;;5056439;28;20399;-77
2023/08/23 04:53:18;;;;;;;1.92;1.52;;;;;;;;;;5037810;28;20079;-76
2023/08/23 04:55:44;;;;;;;4.88;2.05;;;;;;;;;;5054185;28;20029;-76
2023/08/23 04:58:09;;;;;;;3.03;1.75;;;;;;;;;;5056086;28;20067;-77
2023/08/23 05:00:35;;;;;;;4.40;1.60;;;;;;;;;;5053255;28;20073;-76
2023/08/23 05:03:01;;;;;;;21.65;5.85;;;;;;;;;;5052459;28;20170;-76
2023/08/23 05:05:26;;;;;;;26.58;6.18;;;;;;;;;;5053858;28;20044;-77
2023/08/23 05:07:52;;;;;;;24.50;7.57;;;;;;;;;;5053861;28;20029;-76
2023/08/23 05:10:18;;;;;;;24.30;6.78;;;;;;;;;;5054103;28;20108;-76
2023/08/23 05:12:43;;;;;;;28.60;6.75;;;;;;;;;;5053006;28;20108;-77
2023/08/23 05:15:08;;;;;;;20.33;6.50;;;;;;;;;;5054038;28;20029;-76
2023/08/23 05:17:34;;;;;;;22.92;6.88;;;;;;;;;;5053647;28;20186;-75
2023/08/23 05:19:59;;;;;;;16.13;5.78;;;;;;;;;;5052616;28;20055;-76
2023/08/23 05:22:25;;;;;;;24.67;6.00;;;;;;;;;;5053606;28;20037;-76
2023/08/23 05:24:50;;;;;;;13.68;5.28;;;;;;;;;;5054024;28;20057;-76
2023/08/23 05:27:15;;;;;;;18.27;5.40;;;;;;;;;;5053807;28;20028;-76
2023/08/23 05:29:41;;;;;;;18.23;5.40;;;;;;;;;;5053334;28;20016;-76
2023/08/23 05:32:06;;;;;;;12.93;4.28;;;;;;;;;;5053652;28;20112;-76
2023/08/23 05:34:31;;;;;;;16.30;4.45;;;;;;;;;;5053248;28;20033;-76
2023/08/23 05:36:57;;;;;;;12.25;4.50;;;;;;;;;;5052322;28;20112;-76
2023/08/23 05:39:22;;;;;;;12.63;4.28;;;;;;;;;;5053344;28;20094;-76
2023/08/23 05:41:47;;;;;;;9.55;3.45;;;;;;;;;;5052509;28;20052;-76
2023/08/23 05:44:13;;;;;;;8.20;3.63;;;;;;;;;;5051973;28;20029;-75
2023/08/23 05:46:38;;;;;;;10.38;3.60;;;;;;;;;;5052294;28;20430;-76
2023/08/23 05:49:03;;;;;;;11.77;3.40;;;;;;;;;;5052952;28;20049;-76
2023/08/23 05:51:29;;;;;;;9.15;3.38;;;;;;;;;;5053396;28;20028;-76
2023/08/23 05:53:54;;;;;;;6.68;2.75;;;;;;;;;;5052197;28;20384;-76
2023/08/23 05:56:19;;;;;;;7.40;2.50;;;;;;;;;;5051870;28;20120;-76
2023/08/23 05:58:45;;;;;;;7.55;2.45;;;;;;;;;;5035739;28;20380;-76
2023/08/23 06:01:10;;;;;;;9.20;3.05;;;;;;;;;;5053320;28;20163;-75
2023/08/23 06:03:36;;;;;;;6.30;2.90;;;;;;;;;;5051928;28;20033;-76
2023/08/23 06:06:02;;;;;;;4.60;2.22;;;;;;;;;;5051990;28;20040;-76
2023/08/23 06:08:28;;;;;;;3.88;2.38;;;;;;;;;;5035530;28;20037;-76
2023/08/23 06:10:53;;;;;;;5.57;2.42;;;;;;;;;;5052120;28;20029;-76
2023/08/23 06:13:18;;;;;;;3.95;1.98;;;;;;;;;;5053443;28;20037;-76
2023/08/23 06:15:44;;;;;;;5.10;2.10;;;;;;;;;;5052694;28;20090;-76
2023/08/23 06:18:09;;;;;;;6.47;2.15;;;;;;;;;;5053147;28;20033;-76
2023/08/23 06:20:35;;;;;;;4.35;1.90;;;;;;;;;;5053309;28;20079;-76
2023/08/23 06:23:00;;;;;;;3.20;1.92;;;;;;;;;;5051898;28;20495;-75
2023/08/23 06:25:25;;;;;;;2.78;1.75;;;;;;;;;;5053456;28;20124;-75
2023/08/23 06:27:51;;;;;;;5.25;2.03;;;;;;;;;;5051539;28;20032;-75
2023/08/23 06:30:16;;;;;;;4.18;1.90;;;;;;;;;;5053361;28;20411;-76
2023/08/23 06:32:46;;;;;;;6.28;2.20;;;;;;;;;;5051783;28;20021;-76
2023/08/23 06:35:13;;;;;;;3.47;1.70;;;;;;;;;;5052023;28;20037;-76
2023/08/23 06:37:38;;;;;;;3.25;1.60;;;;;;;;;;5052030;28;20033;-76
2023/08/23 06:40:04;;;;;;;5.80;2.08;;;;;;;;;;5051956;28;20483;-76
2023/08/23 06:42:30;;;;;;;4.03;1.88;;;;;;;;;;5054705;28;20043;-77
2023/08/23 06:44:55;;;;;;;3.25;1.60;;;;;;;;;;5055433;28;20051;-76
2023/08/23 06:47:20;;;;;;;4.07;1.70;;;;;;;;;;5055242;28;20032;-76
2023/08/23 06:49:46;;;;;;;2.58;1.50;;;;;;;;;;5056441;28;20052;-76
2023/08/23 06:52:11;;;;;;;2.35;1.60;;;;;;;;;;5055134;28;20062;-74
2023/08/23 06:54:36;;;;;;;2.95;1.65;;;;;;;;;;5055288;28;20041;-74
2023/08/23 06:57:02;;;;;;;2.38;1.67;;;;;;;;;;5054995;28;20083;-76
2023/08/23 06:59:27;;;;;;;2.47;1.40;;;;;;;;;;5056527;28;20056;-76
2023/08/23 07:01:53;;;;;;;1.67;1.50;;;;;;;;;;5056062;28;20029;-77
2023/08/23 07:04:18;;;;;;;2.85;1.52;;;;;;;;;;5054799;28;20025;-76
2023/08/23 07:06:43;;;;;;;4.57;1.50;;;;;;;;;;5055034;28;20036;-74
2023/08/23 07:09:10;;;;;;;3.30;1.60;;;;;;;;;;5055994;28;20059;-76
2023/08/23 07:11:35;;;;;;;2.42;1.40;;;;;;;;;;5054626;28;20123;-74
2023/08/23 07:14:01;;;;;;;4.57;1.40;;;;;;;;;;5054828;28;20025;-76
2023/08/23 07:16:26;;;;;;;3.20;1.38;;;;;;;;;;5037968;28;20068;-74
2023/08/23 07:18:51;;;;;;;1.98;1.35;;;;;;;;;;5055874;28;20033;-76
2023/08/23 07:21:17;;;;;;;2.90;1.63;;;;;;;;;;5055699;28;20028;-74
2023/08/23 07:23:43;;;;;;;2.28;1.50;;;;;;;;;;5056263;28;20111;-76
2023/08/23 07:26:09;;;;;;;3.50;1.50;;;;;;;;;;5055976;28;20503;-76
2023/08/23 07:28:34;;;;;;;3.22;1.30;;;;;;;;;;5055824;28;20033;-76
2023/08/23 07:31:00;;;;;;;2.47;1.40;;;;;;;;;;5055600;28;20029;-77
2023/08/23 07:33:26;;;;;;;3.20;1.58;;;;;;;;;;5054307;28;20029;-75
2023/08/23 07:35:56;;;;;;;3.38;1.45;;;;;;;;;;5038180;28;20452;-75
2023/08/23 07:38:22;;;;;;;2.17;1.40;;;;;;;;;;5055417;28;20111;-76
2023/08/23 07:40:47;;;;;;;3.45;1.55;;;;;;;;;;5037611;28;20128;-76
2023/08/23 07:43:12;;;;;;;2.25;1.50;;;;;;;;;;5055434;28;20033;-76
2023/08/23 07:45:38;;;;;;;1.40;1.20;;;;;;;;;;5055365;28;20032;-76
2023/08/23 07:48:04;;;;;;;2.42;1.40;;;;;;;;;;5055752;28;20029;-76
2023/08/23 07:50:29;;;;;;;4.90;1.30;;;;;;;;;;5037481;28;20140;-74
2023/08/23 07:52:55;;;;;;;2.58;1.40;;;;;;;;;;5055360;28;20112;-76
2023/08/23 07:55:20;;;;;;;2.42;1.15;;;;;;;;;;5054035;28;20499;-76
2023/08/23 07:57:46;;;;;;;2.28;1.40;;;;;;;;;;5053850;28;20033;-76
2023/08/23 08:00:12;;;;;;;3.50;1.58;;;;;;;;;;5037114;28;20029;-76
2023/08/23 08:02:37;;;;;;;3.75;1.60;;;;;;;;;;5055550;28;20029;-76
2023/08/23 08:05:03;;;;;;;4.15;1.50;;;;;;;;;;5054949;28;20025;-74
2023/08/23 08:07:30;;;;;;;2.28;1.40;;;;;;;;;;5037390;28;20043;-77
2023/08/23 08:09:56;;;;;;;4.18;1.40;;;;;;;;;;5055018;28;20033;-77
2023/08/23 08:12:21;;;;;;;2.38;1.50;;;;;;;;;;5055137;28;20052;-76
2023/08/23 08:14:47;;;;;;;3.58;1.45;;;;;;;;;;5054208;28;20083;-75
2023/08/23 08:17:12;;;;;;;2.08;1.30;;;;;;;;;;5055070;28;20395;-75
2023/08/23 08:19:38;;;;;;;2.13;1.50;;;;;;;;;;5054632;28;20111;-76
2023/08/23 08:22:03;;;;;;;2.05;1.55;;;;;;;;;;5054469;28;20025;-75
2023/08/23 08:24:29;;;;;;;5.90;1.63;;;;;;;;;;5053738;28;20032;-77
2023/08/23 08:26:56;;;;;;;4.50;1.98;;;;;;;;;;5053331;28;20115;-75
2023/08/23 08:29:22;;;;;;;4.70;1.95;;;;;;;;;;5036929;28;20479;-76
2023/08/23 08:31:52;;;;;;;7.40;2.08;;;;;;;;;;5053275;28;20040;-76
2023/08/23 08:34:18;;;;;;;3.05;2.08;;;;;;;;;;5053314;28;20048;-76
2023/08/23 08:36:43;;;;;;;10.00;2.20;;;;;;;;;;5053877;28;20044;-76
2023/08/23 08:39:09;;;;;;;4.05;2.67;;;;;;;;;;5053400;28;20025;-77
2023/08/23 08:41:36;;;;;;;5.60;2.70;;;;;;;;;;5053573;28;20124;-76
2023/08/23 08:44:02;;;;;;;5.65;2.10;;;;;;;;;;5036762;28;20029;-77
2023/08/23 08:46:28;;;;;;;4.28;2.30;;;;;;;;;;5054993;28;20029;-74
2023/08/23 08:48:54;;;;;;;6.47;2.30;;;;;;;;;;5054054;28;20048;-76
2023/08/23 08:51:20;;;;;;;3.83;1.65;;;;;;;;;;5019904;28;20037;-77
2023/08/23 08:53:49;;;;;;;2.25;1.70;;;;;;;;;;5036202;28;20025;-76
2023/08/23 08:56:16;;;;;;;4.47;1.67;;;;;;;;;;5051944;28;20086;-74
2023/08/23 08:58:42;;;;;;;3.50;1.50;;;;;;;;;;5053679;28;20029;-74
2023/08/23 09:01:08;;;;;;;1.80;1.40;;;;;;;;;;5060179;28;20401;-76
2023/08/23 09:03:33;;;;;;;5.03;1.67;;;;;;;;;;5071921;28;20120;-76
2023/08/23 09:05:59;;;;;;;2.88;1.60;;;;;;;;;;5072627;28;20039;-76
2023/08/23 09:08:24;;;;;;;3.42;1.55;;;;;;;;;;5072770;28;20111;-76
2023/08/23 09:10:50;;;;;;;2.45;1.17;;;;;;;;;;5072875;28;20052;-75
2023/08/23 09:13:16;;;;;;;3.20;1.30;;;;;;;;;;5073718;28;20085;-76
2023/08/23 09:15:41;;;;;;;1.40;1.20;;;;;;;;;;5072649;28;20028;-76
2023/08/23 09:18:07;;;;;;;3.92;1.88;;;;;;;;;;5072880;28;20020;-74
2023/08/23 09:20:32;;;;;;;10.15;1.50;;;;;;;;;;5072468;28;20101;-74
2023/08/23 09:22:58;;;;;;;1.73;1.10;;;;;;;;;;5039094;28;20125;-74
2023/08/23 09:25:23;;;;;;;3.50;1.40;;;;;;;;;;5073539;28;20456;-74
2023/08/23 09:27:49;;;;;;;7.20;1.38;;;;;;;;;;5072275;28;20036;-76
2023/08/23 09:30:15;;;;;;;3.58;1.40;;;;;;;;;;5072328;28;20021;-75
2023/08/23 09:32:43;;;;;;;2.20;1.15;;;;;;;;;;5072277;28;20035;-76
2023/08/23 09:35:13;;;;;;;2.83;1.40;;;;;;;;;;5073272;28;20042;-74
2023/08/23 09:37:43;;;;;;;7.05;1.42;;;;;;;;;;5073360;28;20033;-77
2023/08/23 09:40:18;;;;;;;3.53;1.55;;;;;;;;;;5072574;28;20107;-74
2023/08/23 09:42:44;;;;;;;6.00;1.70;;;;;;;;;;5055341;28;20020;-75
2023/08/23 09:45:15;;;;;;;2.75;1.50;;;;;;;;;;5072191;28;20119;-76
2023/08/23 09:47:52;;;;;;;4.75;1.63;;;;;;;;;;5072409;28;20024;-76
2023/08/23 09:50:27;;;;;;;2.45;1.33;;;;;;;;;;5072091;28;20067;-75
2023/08/23 09:52:58;;;;;;;3.65;1.25;;;;;;;;;;5071941;28;20078;-76
2023/08/23 09:55:25;;;;;;;4.30;1.95;;;;;;;;;;5072323;28;20029;-76
2023/08/23 09:57:52;;;;;;;3.08;1.25;;;;;;;;;;5055224;28;20031;-75
2023/08/23 10:00:17;;;;;;;2.55;1.50;;;;;;;;;;5072604;28;20553;-75
2023/08/23 10:02:44;;;;;;;2.38;1.38;;;;;;;;;;5071998;28;20479;-75
2023/08/23 10:05:11;;;;;;;4.90;1.40;;;;;;;;;;5071875;28;20073;-76
2023/08/23 10:07:38;;;;;;;2.10;1.10;;;;;;;;;;5072433;28;20036;-76
2023/08/23 10:10:05;;;;;;;2.35;1.10;;;;;;;;;;5055192;28;20029;-75
2023/08/23 10:12:33;;;;;;;2.70;1.10;;;;;;;;;;5072232;28;20095;-75
2023/08/23 10:14:59;;;;;;;9.80;2.05;;;;;;;;;;5071885;28;20028;-75
2023/08/23 10:17:25;;;;;;;4.60;1.20;;;;;;;;;;5075446;28;20440;-75
2023/08/23 10:19:52;;;;;;;1.35;1.00;;;;;;;;;;5075871;28;20021;-76
2023/08/23 10:22:18;;;;;;;2.20;1.10;;;;;;;;;;5075977;28;20056;-75
2023/08/23 10:24:49;;;;;;;2.25;1.10;;;;;;;;;;5077093;28;20024;-76
2023/08/23 10:27:15;;;;;;;2.47;1.63;;;;;;;;;;5076231;28;20099;-75
2023/08/23 10:29:41;;;;;;;1.90;1.25;;;;;;;;;;5077254;28;20475;-75
2023/08/23 10:32:10;;;;;;;3.33;1.35;;;;;;;;;;5077077;28;20035;-75
2023/08/23 10:34:36;;;;;;;2.58;1.27;;;;;;;;;;5077234;28;20542;-75
2023/08/23 10:37:22;;;;;;;2.28;1.23;;;;;;;;;;5075662;28;20033;-75
2023/08/23 10:39:49;;;;;;;6.30;1.25;;;;;;;;;;5076439;28;20068;-76
2023/08/23 10:42:18;;;;;;;1.67;1.27;;;;;;;;;;5075367;28;20425;-75
2023/08/23 10:45:04;;;;;;;1.92;1.08;;;;;;;;;;5076641;28;20116;-76
2023/08/23 10:47:29;;;;;;;3.30;1.10;;;;;;;;;;5075630;28;20119;-76
2023/08/23 10:49:57;;;;;;;2.13;1.00;;;;;;;;;;5058405;28;20076;-74
2023/08/23 10:52:24;;;;;;;2.45;1.75;;;;;;;;;;5075397;28;20081;-76
2023/08/23 10:54:50;;;;;;;20.95;1.52;;;;;;;;;;5075143;28;20449;-78
2023/08/23 10:57:17;;;;;;;2.65;1.00;;;;;;;;;;5076407;28;20103;-75
2023/08/23 10:59:43;;;;;;;3.58;1.00;;;;;;;;;;5076872;28;20094;-76
2023/08/23 11:02:09;;;;;;;3.00;1.20;;;;;;;;;;5076121;28;20031;-77
2023/08/23 11:04:35;;;;;;;2.40;1.27;;;;;;;;;;5075196;28;20024;-77
2023/08/23 11:07:01;;;;;;;2.83;1.20;;;;;;;;;;5076311;28;20032;-76
2023/08/23 11:09:26;;;;;;;3.03;1.23;;;;;;;;;;5075187;28;20029;-76
2023/08/23 11:11:53;;;;;;;2.15;1.00;;;;;;;;;;5076374;28;20036;-76
2023/08/23 11:14:18;;;;;;;1.75;1.15;;;;;;;;;;5074799;28;20556;-76
2023/08/23 11:16:50;;;;;;;5.70;1.40;;;;;;;;;;5076641;28;20036;-76
2023/08/23 11:19:19;;;;;;;4.13;0.93;;;;;;;;;;5058243;28;20024;-77
2023/08/23 11:21:46;;;;;;;3.38;1.30;;;;;;;;;;5074789;28;20043;-76
2023/08/23 11:24:13;;;;;;;1.40;1.30;;;;;;;;;;5074769;28;20024;-76
2023/08/23 11:26:38;;;;;;;2.50;1.30;;;;;;;;;;5074139;28;20029;-76
2023/08/23 11:29:04;;;;;;;1.75;1.02;;;;;;;;;;5057900;28;20024;-76
2023/08/23 11:31:35;;;;;;;1.33;1.10;;;;;;;;;;5074563;28;20082;-76
2023/08/23 11:34:10;;;;;;;0.80;0.80;;;;;;;;;;5074309;28;20123;-76
2023/08/23 11:36:38;;;;;;;1.98;1.20;;;;;;;;;;5074564;28;20041;-76
2023/08/23 11:39:06;;;;;;;1.27;1.17;;;;;;;;;;5057602;28;20119;-76
2023/08/23 11:41:33;;;;;;;1.88;1.20;;;;;;;;;;5074227;28;20060;-77
2023/08/23 11:44:07;;;;;;;2.80;1.08;;;;;;;;;;5074245;28;20422;-76
2023/08/23 11:46:38;;;;;;;1.00;1.00;;;;;;;;;;5074924;28;20103;-77
2023/08/23 11:49:19;;;;;;;2.72;1.10;;;;;;;;;;5057681;28;20055;-76
2023/08/23 11:51:58;;;;;;;1.45;1.02;;;;;;;;;;5073845;28;20020;-76
2023/08/23 11:54:23;;;;;;;2.40;1.30;;;;;;;;;;5075675;28;20545;-78
2023/08/23 11:56:49;;;;;;;1.00;1.00;;;;;;;;;;5074023;28;20036;-78
2023/08/23 11:59:14;;;;;;;2.17;1.20;;;;;;;;;;5057256;28;20047;-78
2023/08/23 12:01:43;;;;;;;2.08;1.27;;;;;;;;;;5074178;28;20051;-78
2023/08/23 12:04:10;;;;;;;1.23;1.00;;;;;;;;;;5073780;28;20557;-78
2023/08/23 12:06:35;;;;;;;1.20;1.10;;;;;;;;;;5057775;28;20123;-78
2023/08/23 12:09:01;;;;;;;1.90;1.23;;;;;;;;;;5040428;28;20059;-78
2023/08/23 12:11:27;;;;;;;1.73;1.02;;;;;;;;;;5075057;28;20032;-78
2023/08/23 12:13:52;;;;;;;1.33;1.10;;;;;;;;;;5057012;28;20039;-78
2023/08/23 12:16:18;;;;;;;1.85;1.17;;;;;;;;;;5074212;28;20383;-78
2023/08/23 12:18:46;;;;;;;6.35;1.30;;;;;;;;;;5056926;28;20059;-78
2023/08/23 12:21:12;;;;;;;1.25;1.15;;;;;;;;;;5073565;28;20060;-78
2023/08/23 12:23:37;;;;;;;3.40;1.95;;;;;;;;;;5056931;28;20110;-78
2023/08/23 12:26:02;;;;;;;1.42;1.05;;;;;;;;;;5074020;28;20032;-78
2023/08/23 12:28:28;;;;;;;1.60;1.15;;;;;;;;;;5074564;28;20116;-78
2023/08/23 12:30:54;;;;;;;3.42;1.20;;;;;;;;;;5074549;28;20036;-78
2023/08/23 12:33:21;;;;;;;2.97;1.20;;;;;;;;;;5073370;28;20027;-78
2023/08/23 12:35:46;;;;;;;2.10;1.30;;;;;;;;;;5057358;28;20090;-78
2023/08/23 12:38:11;;;;;;;1.58;1.30;;;;;;;;;;5055781;28;20036;-78
2023/08/23 12:40:38;;;;;;;1.83;1.23;;;;;;;;;;5056207;28;20024;-78
2023/08/23 12:43:16;;;;;;;2.45;1.45;;;;;;;;;;5049049;28;20548;-78
2023/08/23 12:45:42;;;;;;;1.30;1.20;;;;;;;;;;5052601;28;20068;-77
2023/08/23 12:48:09;;;;;;;2.95;1.30;;;;;;;;;;5053696;28;20037;-78
2023/08/23 12:50:34;;;;;;;16.60;1.48;;;;;;;;;;5053466;28;20069;-78
2023/08/23 12:52:59;;;;;;;2.38;1.20;;;;;;;;;;5052655;28;20497;-78
2023/08/23 12:55:25;;;;;;;3.95;1.80;;;;;;;;;;5052399;28;20033;-78
2023/08/23 12:57:50;;;;;;;1.60;1.35;;;;;;;;;;5054372;28;20056;-78
2023/08/23 13:00:17;;;;;;;3.22;2.13;;;;;;;;;;5052807;28;20048;-78
2023/08/23 13:02:42;;;;;;;4.80;1.63;;;;;;;;;;5053011;28;20053;-78
2023/08/23 13:05:08;;;;;;;3.90;1.90;;;;;;;;;;5054204;28;20066;-78
2023/08/23 13:07:33;;;;;;;3.05;1.30;;;;;;;;;;5052661;28;20033;-78
2023/08/23 13:09:59;;;;;;;3.25;1.50;;;;;;;;;;5053892;28;20028;-78
2023/08/23 13:12:25;;;;;;;3.95;1.88;;;;;;;;;;5052576;28;20364;-78
2023/08/23 13:14:50;;;;;;;4.13;1.70;;;;;;;;;;5036098;28;20039;-78
2023/08/23 13:17:16;;;;;;;2.67;1.50;;;;;;;;;;5054014;28;20111;-78
2023/08/23 13:19:41;;;;;;;2.75;1.60;;;;;;;;;;5053757;28;20032;-78
2023/08/23 13:22:06;;;;;;;2.75;1.48;;;;;;;;;;5053610;28;20025;-78
2023/08/23 13:24:32;;;;;;;2.45;1.50;;;;;;;;;;5052422;28;20035;-78
2023/08/23 13:26:57;;;;;;;5.75;1.55;;;;;;;;;;5053704;28;20053;-78
2023/08/23 13:29:23;;;;;;;1.83;1.20;;;;;;;;;;5052349;28;20035;-78
2023/08/23 13:31:48;;;;;;;2.63;1.73;;;;;;;;;;5053562;28;20109;-78
2023/08/23 13:34:14;;;;;;;2.00;1.40;;;;;;;;;;5054526;28;20040;-78
2023/08/23 13:36:44;;;;;;;2.25;1.40;;;;;;;;;;5054191;28;20029;-78
2023/08/23 13:39:10;;;;;;;2.10;1.40;;;;;;;;;;5053609;28;20029;-78
2023/08/23 13:41:36;;;;;;;5.07;1.92;;;;;;;;;;5054044;28;20040;-78
2023/08/23 13:44:02;;;;;;;1.65;1.25;;;;;;;;;;5054149;28;20025;-77
2023/08/23 13:46:27;;;;;;;2.95;1.50;;;;;;;;;;5053582;28;20052;-77
2023/08/23 13:48:53;;;;;;;3.67;1.50;;;;;;;;;;5053628;28;20079;-77
2023/08/23 13:51:18;;;;;;;3.08;1.40;;;;;;;;;;5052981;28;20059;-77
2023/08/23 13:53:45;;;;;;;2.25;1.60;;;;;;;;;;5055260;28;20035;-78
2023/08/23 13:56:11;;;;;;;2.72;1.50;;;;;;;;;;5036792;28;20025;-77
2023/08/23 13:58:37;;;;;;;2.90;1.33;;;;;;;;;;5054743;28;20116;-76
2023/08/23 14:01:02;;;;;;;4.75;1.33;;;;;;;;;;5037093;28;20465;-77
2023/08/23 14:03:28;;;;;;;2.30;1.30;;;;;;;;;;5053925;28;20090;-77
2023/08/23 14:06:04;;;;;;;2.42;1.23;;;;;;;;;;5055812;28;20049;-76
2023/08/23 14:08:29;;;;;;;1.65;1.40;;;;;;;;;;5052913;28;20017;-77
2023/08/23 14:10:55;;;;;;;1.90;1.30;;;;;;;;;;5036974;28;20024;-77
2023/08/23 14:13:21;;;;;;;1.55;1.27;;;;;;;;;;5036960;28;20384;-77
2023/08/23 14:15:47;;;;;;;1.92;1.50;;;;;;;;;;5053719;28;20036;-77
2023/08/23 14:18:12;;;;;;;1.92;1.30;;;;;;;;;;5052997;28;20129;-77
2023/08/23 14:20:38;;;;;;;2.72;1.50;;;;;;;;;;5053209;28;20033;-78
2023/08/23 14:23:04;;;;;;;2.60;1.45;;;;;;;;;;5053710;28;20431;-78
2023/08/23 14:25:29;;;;;;;1.90;1.33;;;;;;;;;;5052064;28;20052;-78
2023/08/23 14:27:55;;;;;;;2.58;1.60;;;;;;;;;;5051724;28;20468;-78
2023/08/23 14:30:21;;;;;;;1.95;1.23;;;;;;;;;;5035419;28;20029;-78
2023/08/23 14:32:48;;;;;;;1.92;1.30;;;;;;;;;;5051750;28;20049;-78
2023/08/23 14:35:14;;;;;;;4.15;1.42;;;;;;;;;;5053628;28;20037;-79
2023/08/23 14:37:39;;;;;;;1.63;1.48;;;;;;;;;;5053092;28;20025;-77